createdAt,value
2022-10-16T00:01:39.906Z,13.90
2022-10-16T00:04:06.980Z,15.38
2022-10-16T00:06:34.001Z,13.93
2022-10-16T00:09:00.933Z,13.65
2022-10-16T00:11:34.776Z,13.30
2022-10-16T00:14:04.630Z,15.40
2022-10-16T00:16:32.491Z,15.95
2022-10-16T00:18:59.617Z,15.63
2022-10-16T00:21:29.357Z,14.80
2022-10-16T00:24:00.895Z,15.75
2022-10-16T00:26:30.768Z,16.20
2022-10-16T00:28:57.864Z,13.82
2022-10-16T00:31:25.821Z,15.30
2022-10-16T00:33:53.290Z,13.98
2022-10-16T00:36:24.857Z,15.00
2022-10-16T00:38:55.674Z,15.32
2022-10-16T00:41:26.054Z,14.77
2022-10-16T00:44:03.029Z,14.70
2022-10-16T00:46:43.261Z,14.55
2022-10-16T00:49:21.240Z,15.75
2022-10-16T00:51:51.876Z,15.15
2022-10-16T00:54:29.256Z,15.63
2022-10-16T00:57:01.329Z,14.20
2022-10-16T00:59:41.040Z,14.27
2022-10-16T01:02:14.161Z,15.50
2022-10-16T01:04:51.841Z,14.05
2022-10-16T01:07:31.608Z,14.45
2022-10-16T01:10:17.185Z,14.20
2022-10-16T01:12:55.475Z,15.35
2022-10-16T01:15:34.189Z,14.00
2022-10-16T01:18:27.619Z,13.30
2022-10-16T01:21:00.194Z,13.77
2022-10-16T01:23:57.780Z,13.70
2022-10-16T01:26:33.871Z,13.73
2022-10-16T01:29:17.849Z,13.50
2022-10-16T01:31:53.582Z,12.73
2022-10-16T01:34:38.139Z,13.18
2022-10-16T01:37:19.689Z,13.15
2022-10-16T01:39:51.238Z,12.80
2022-10-16T01:42:25.090Z,12.55
2022-10-16T01:44:54.704Z,13.68
2022-10-16T01:47:28.136Z,12.30
2022-10-16T01:49:59.566Z,13.45
2022-10-16T01:52:30.444Z,14.25
2022-10-16T01:55:00.613Z,14.73
2022-10-16T01:57:31.491Z,13.45
2022-10-16T02:00:08.096Z,12.55
2022-10-16T02:02:43.253Z,13.48
2022-10-16T02:05:31.604Z,12.77
2022-10-16T02:08:00.486Z,12.35
2022-10-16T02:10:32.491Z,12.35
2022-10-16T02:13:31.741Z,12.23
2022-10-16T02:15:58.623Z,12.27
2022-10-16T02:18:30.111Z,12.85
2022-10-16T02:21:07.967Z,14.45
2022-10-16T02:24:08.034Z,13.18
2022-10-16T02:26:52.103Z,13.07
2022-10-16T02:29:26.947Z,13.00
2022-10-16T02:32:04.138Z,12.85
2022-10-16T02:34:33.679Z,13.30
2022-10-16T02:37:04.149Z,14.18
2022-10-16T02:39:32.006Z,14.65
2022-10-16T02:41:58.911Z,13.15
2022-10-16T02:44:26.128Z,13.80
2022-10-16T02:46:52.973Z,14.25
2022-10-16T02:49:19.873Z,14.20
2022-10-16T02:51:46.684Z,14.48
2022-10-16T02:54:14.044Z,13.73
2022-10-16T02:56:40.856Z,14.38
2022-10-16T02:59:07.690Z,15.20
2022-10-16T03:01:34.574Z,13.82
2022-10-16T03:04:01.434Z,13.57
2022-10-16T03:06:28.234Z,13.63
2022-10-16T03:08:55.061Z,14.73
2022-10-16T03:11:21.926Z,14.18
2022-10-16T03:13:48.758Z,14.15
2022-10-16T03:16:15.666Z,14.68
2022-10-16T03:18:42.673Z,15.38
2022-10-16T03:21:09.500Z,14.15
2022-10-16T03:23:36.445Z,13.77
2022-10-16T03:26:03.475Z,13.82
2022-10-16T03:28:30.339Z,12.30
2022-10-16T03:30:57.309Z,13.57
2022-10-16T03:33:24.155Z,12.70
2022-10-16T03:35:55.748Z,14.20
2022-10-16T03:38:23.261Z,13.38
2022-10-16T03:40:50.081Z,12.38
2022-10-16T03:43:17.241Z,12.77
2022-10-16T03:45:44.219Z,13.18
2022-10-16T03:48:11.298Z,12.70
2022-10-16T03:50:38.452Z,13.25
2022-10-16T03:53:05.455Z,13.20
2022-10-16T03:55:32.299Z,13.40
2022-10-16T03:57:59.203Z,12.80
2022-10-16T04:00:26.323Z,13.55
2022-10-16T04:02:53.248Z,13.27
2022-10-16T04:05:20.149Z,12.18
2022-10-16T04:07:47.007Z,13.85
2022-10-16T04:10:13.828Z,14.25
2022-10-16T04:12:40.724Z,15.27
2022-10-16T04:15:08.342Z,14.10
2022-10-16T04:17:35.227Z,12.95
2022-10-16T04:20:02.155Z,13.95
2022-10-16T04:22:29.110Z,13.68
2022-10-16T04:24:55.969Z,13.90
2022-10-16T04:27:22.870Z,13.80
2022-10-16T04:29:49.754Z,13.77
2022-10-16T04:32:16.926Z,12.25
2022-10-16T04:34:43.789Z,13.18
2022-10-16T04:37:10.613Z,13.35
2022-10-16T04:39:37.434Z,14.80
2022-10-16T04:42:04.440Z,13.93
2022-10-16T04:44:31.220Z,13.65
2022-10-16T04:46:58.130Z,13.90
2022-10-16T04:49:25.163Z,14.55
2022-10-16T04:51:51.940Z,14.02
2022-10-16T04:54:18.754Z,14.95
2022-10-16T04:56:48.444Z,15.40
2022-10-16T04:59:16.139Z,15.40
2022-10-16T05:01:43.009Z,14.55
2022-10-16T05:04:11.045Z,16.73
2022-10-16T05:06:39.590Z,16.00
2022-10-16T05:09:07.121Z,14.70
2022-10-16T05:11:34.769Z,15.65
2022-10-16T05:14:02.088Z,16.00
2022-10-16T05:16:29.142Z,16.17
2022-10-16T05:19:00.020Z,15.38
2022-10-16T05:21:37.227Z,15.50
2022-10-16T05:24:04.218Z,15.13
2022-10-16T05:26:31.019Z,15.55
2022-10-16T05:28:57.913Z,15.05
2022-10-16T05:31:24.823Z,15.60
2022-10-16T05:33:51.643Z,14.88
2022-10-16T05:36:19.249Z,15.20
2022-10-16T05:38:46.067Z,14.27
2022-10-16T05:41:12.928Z,15.77
2022-10-16T05:43:39.891Z,14.73
2022-10-16T05:46:07.270Z,15.50
2022-10-16T05:48:34.239Z,16.13
2022-10-16T05:51:08.011Z,15.82
2022-10-16T05:53:38.175Z,15.50
2022-10-16T05:56:07.746Z,14.63
2022-10-16T05:58:37.069Z,15.07
2022-10-16T06:01:08.077Z,14.80
2022-10-16T06:03:35.735Z,15.02
2022-10-16T06:06:18.023Z,15.10
2022-10-16T06:08:46.580Z,14.85
2022-10-16T06:11:19.630Z,16.02
2022-10-16T06:13:50.458Z,14.43
2022-10-16T06:16:17.649Z,14.32
2022-10-16T06:18:44.626Z,14.48
2022-10-16T06:21:19.077Z,15.30
2022-10-16T06:23:49.049Z,13.77
2022-10-16T06:26:19.802Z,13.00
2022-10-16T06:28:47.873Z,13.90
2022-10-16T06:31:15.471Z,12.98
2022-10-16T06:33:42.517Z,14.95
2022-10-16T06:36:13.642Z,14.02
2022-10-16T06:38:41.441Z,13.85
2022-10-16T06:41:14.130Z,13.98
2022-10-16T06:43:41.436Z,12.77
2022-10-16T06:46:12.186Z,14.40
2022-10-16T06:48:39.487Z,13.32
2022-10-16T06:51:24.566Z,15.55
2022-10-16T06:54:03.030Z,14.90
2022-10-16T06:56:33.104Z,16.20
2022-10-16T06:59:01.305Z,16.95
2022-10-16T07:01:29.474Z,17.00
2022-10-16T07:03:56.327Z,16.02
2022-10-16T07:06:26.238Z,15.88
2022-10-16T07:08:53.779Z,15.32
2022-10-16T07:11:24.473Z,15.25
2022-10-16T07:13:54.803Z,15.15
2022-10-16T07:16:29.791Z,15.20
2022-10-16T07:18:59.933Z,15.00
2022-10-16T07:21:30.626Z,14.68
2022-10-16T07:24:01.981Z,15.25
2022-10-16T07:26:32.010Z,15.38
2022-10-16T07:28:59.369Z,15.88
2022-10-16T07:31:26.809Z,15.68
2022-10-16T07:33:54.312Z,15.80
2022-10-16T07:36:22.683Z,14.65
2022-10-16T07:38:51.068Z,15.52
2022-10-16T07:41:20.934Z,14.98
2022-10-16T07:43:50.817Z,14.32
2022-10-16T07:46:20.822Z,15.00
2022-10-16T07:48:48.934Z,15.30
2022-10-16T07:51:23.761Z,14.40
2022-10-16T07:56:20.243Z,13.20
2022-10-16T07:58:47.442Z,13.75
2022-10-16T08:01:17.158Z,13.90
2022-10-16T08:03:50.922Z,13.40
2022-10-16T08:06:23.522Z,14.35
2022-10-16T08:08:54.284Z,13.70
2022-10-16T08:11:21.169Z,13.63
2022-10-16T08:13:48.070Z,13.68
2022-10-16T08:16:15.101Z,13.45
2022-10-16T08:18:42.537Z,12.95
2022-10-16T08:21:21.188Z,12.45
2022-10-16T08:23:53.049Z,11.95
2022-10-16T08:26:26.120Z,11.30
2022-10-16T08:28:53.203Z,10.40
2022-10-16T08:31:21.151Z,11.10
2022-10-16T08:33:48.768Z,10.52
2022-10-16T08:36:17.103Z,10.20
2022-10-16T08:38:44.568Z,9.77
2022-10-16T08:41:25.473Z,10.48
2022-10-16T08:44:29.266Z,9.60
2022-10-16T08:47:37.706Z,8.80
2022-10-16T08:50:13.880Z,8.25
2022-10-16T08:52:45.551Z,9.15
2022-10-16T08:55:51.970Z,9.10
2022-10-16T08:58:27.704Z,8.20
2022-10-16T09:00:58.159Z,7.82
2022-10-16T09:03:55.321Z,7.13
2022-10-16T09:06:41.590Z,6.50
2022-10-16T09:09:23.314Z,6.88
2022-10-16T09:12:12.750Z,7.65
2022-10-16T09:14:48.421Z,7.65
2022-10-16T09:17:31.182Z,8.38
2022-10-16T09:20:13.341Z,8.18
2022-10-16T09:22:40.790Z,8.43
2022-10-16T09:25:21.688Z,7.90
2022-10-16T09:27:54.000Z,7.93
2022-10-16T09:30:22.929Z,7.53
2022-10-16T09:32:54.547Z,7.30
2022-10-16T09:35:32.358Z,7.57
2022-10-16T09:37:59.418Z,7.97
2022-10-16T09:40:37.639Z,7.70
2022-10-16T09:43:30.476Z,8.05
2022-10-16T09:46:06.356Z,7.97
2022-10-16T09:48:45.758Z,7.60
2022-10-16T09:51:32.877Z,6.75
2022-10-16T09:54:10.937Z,7.00
2022-10-16T09:56:42.652Z,7.10
2022-10-16T09:59:18.383Z,6.38
2022-10-16T10:01:54.605Z,6.25
2022-10-16T10:04:24.671Z,6.32
2022-10-16T10:06:57.903Z,5.60
2022-10-16T10:09:34.050Z,5.40
2022-10-16T10:12:06.301Z,4.38
2022-10-16T10:14:49.106Z,4.07
2022-10-16T10:17:19.286Z,3.85
2022-10-16T10:20:12.603Z,3.58
2022-10-16T10:22:47.046Z,3.55
2022-10-16T10:25:13.883Z,3.42
2022-10-16T10:28:04.055Z,4.03
2022-10-16T10:31:03.204Z,4.22
2022-10-16T10:33:39.156Z,3.50
2022-10-16T10:36:32.854Z,3.67
2022-10-16T10:39:09.875Z,3.88
2022-10-16T10:41:58.209Z,2.20
2022-10-16T10:44:44.594Z,1.92
2022-10-16T10:47:53.015Z,1.30
2022-10-16T10:50:40.860Z,1.58
2022-10-16T10:53:29.666Z,0.68
2022-10-16T10:56:24.242Z,0.98
2022-10-16T10:59:22.801Z,1.10
2022-10-16T11:02:10.725Z,0.80
2022-10-16T11:05:24.189Z,0.70
2022-10-16T11:08:03.200Z,0.60
2022-10-16T11:10:46.593Z,0.20
2022-10-16T11:13:37.803Z,0.50
2022-10-16T11:16:23.030Z,0.60
2022-10-16T11:19:20.979Z,0.50
2022-10-16T11:22:26.984Z,0.50
2022-10-16T11:25:26.956Z,0.43
2022-10-16T11:28:27.978Z,0.52
2022-10-16T11:31:08.535Z,0.55
2022-10-16T11:33:50.615Z,0.60
2022-10-16T11:36:45.882Z,0.60
2022-10-16T11:42:09.281Z,0.55
2022-10-16T11:45:03.382Z,0.50
2022-10-16T11:47:59.934Z,0.52
2022-10-16T11:50:51.200Z,0.50
2022-10-16T11:53:56.236Z,0.60
2022-10-16T11:56:23.785Z,0.57
2022-10-16T11:59:24.102Z,0.60
2022-10-16T12:02:26.959Z,0.50
2022-10-16T12:05:24.233Z,0.40
2022-10-16T12:08:13.336Z,0.47
2022-10-16T12:10:44.384Z,0.50
2022-10-16T12:13:40.828Z,0.40
2022-10-16T12:16:13.239Z,0.50
2022-10-16T12:18:48.424Z,0.40
2022-10-16T12:21:20.030Z,0.50
2022-10-16T12:24:01.175Z,0.40
2022-10-16T12:26:49.810Z,0.50
2022-10-16T12:29:35.345Z,0.50
2022-10-16T12:32:06.119Z,0.70
2022-10-16T12:34:45.941Z,1.35
2022-10-16T12:37:47.442Z,1.00
2022-10-16T12:40:36.769Z,0.82
2022-10-16T12:43:24.916Z,0.50
2022-10-16T12:46:24.397Z,0.68
2022-10-16T12:49:08.328Z,0.50
2022-10-16T12:51:39.135Z,1.00
2022-10-16T12:54:19.919Z,1.10
2022-10-16T12:56:58.902Z,0.90
2022-10-16T12:59:50.805Z,1.08
2022-10-16T13:02:54.740Z,0.52
2022-10-16T13:06:15.025Z,0.70
2022-10-16T13:09:31.374Z,0.65
2022-10-16T13:12:18.540Z,0.82
2022-10-16T13:15:21.705Z,0.68
2022-10-16T13:18:04.613Z,0.57
2022-10-16T13:21:05.812Z,0.52
2022-10-16T13:24:15.509Z,0.60
2022-10-16T13:27:08.220Z,0.40
2022-10-16T13:29:35.732Z,0.70
2022-10-16T13:32:12.839Z,0.50
2022-10-16T13:34:49.673Z,0.40
2022-10-16T13:37:24.112Z,0.45
2022-10-16T13:39:53.876Z,0.50
2022-10-16T13:42:28.524Z,0.50
2022-10-16T13:47:30.543Z,0.60
2022-10-16T13:50:18.964Z,0.70
2022-10-16T13:52:46.409Z,0.60
2022-10-16T13:55:19.531Z,0.70
2022-10-16T13:57:46.669Z,0.70
2022-10-16T14:00:31.057Z,0.73
2022-10-16T14:03:15.539Z,0.80
2022-10-16T14:05:52.516Z,1.10
2022-10-16T14:08:20.091Z,1.05
2022-10-16T14:11:01.791Z,0.98
2022-10-16T14:13:44.587Z,0.88
2022-10-16T14:16:22.424Z,0.90
2022-10-16T14:19:06.319Z,0.70
2022-10-16T14:21:35.375Z,0.60
2022-10-16T14:24:32.128Z,0.63
2022-10-16T14:27:00.764Z,0.73
2022-10-16T14:29:32.452Z,0.98
2022-10-16T14:32:08.433Z,1.50
2022-10-16T14:34:41.079Z,1.30
2022-10-16T14:37:37.463Z,1.20
2022-10-16T14:40:05.703Z,0.80
2022-10-16T14:42:32.557Z,1.15
2022-10-16T14:44:59.614Z,1.27
2022-10-16T14:47:28.333Z,1.33
2022-10-16T14:49:56.949Z,0.93
2022-10-16T14:52:24.099Z,1.20
2022-10-16T14:54:55.500Z,1.17
2022-10-16T14:57:28.654Z,1.02
2022-10-16T14:59:56.008Z,1.00
2022-10-16T15:02:34.052Z,0.95
2022-10-16T15:05:33.069Z,1.20
2022-10-16T15:07:59.947Z,1.38
2022-10-16T15:10:29.686Z,1.00
2022-10-16T15:12:56.593Z,1.00
2022-10-16T15:15:43.050Z,0.90
2022-10-16T15:18:09.959Z,1.00
2022-10-16T15:20:39.923Z,1.08
2022-10-16T15:23:20.597Z,1.13
2022-10-16T15:25:52.406Z,1.38
2022-10-16T15:28:21.564Z,0.82
2022-10-16T15:30:52.804Z,0.88
2022-10-16T15:33:35.809Z,1.02
2022-10-16T15:36:06.089Z,1.40
2022-10-16T15:38:33.058Z,1.00
2022-10-16T15:40:59.896Z,1.25
2022-10-16T15:43:27.136Z,1.35
2022-10-16T15:46:15.390Z,1.00
2022-10-16T15:48:42.208Z,1.40
2022-10-16T15:51:10.404Z,1.33
2022-10-16T15:53:37.550Z,1.75
2022-10-16T15:56:06.368Z,1.10
2022-10-16T15:58:34.732Z,1.25
2022-10-16T16:01:02.758Z,1.38
2022-10-16T16:03:31.382Z,1.27
2022-10-16T16:06:04.194Z,1.40
2022-10-16T16:08:31.036Z,1.20
2022-10-16T16:11:03.434Z,1.20
2022-10-16T16:13:30.424Z,1.10
2022-10-16T16:15:57.637Z,3.67
2022-10-16T16:18:25.128Z,5.07
2022-10-16T16:20:53.191Z,4.43
2022-10-16T16:23:20.863Z,3.90
2022-10-16T16:26:22.687Z,2.80
2022-10-16T16:28:49.751Z,1.98
2022-10-16T16:31:16.687Z,1.95
2022-10-16T16:33:43.687Z,1.90
2022-10-16T16:36:15.470Z,1.58
2022-10-16T16:38:42.904Z,2.00
2022-10-16T16:41:22.802Z,1.42
2022-10-16T16:43:52.226Z,1.30
2022-10-16T16:46:19.559Z,1.40
2022-10-16T16:48:47.533Z,1.50
2022-10-16T16:51:19.115Z,1.80
2022-10-16T16:53:54.846Z,1.50
2022-10-16T16:56:24.262Z,1.80
2022-10-16T16:58:55.557Z,1.67
2022-10-16T17:01:25.824Z,2.03
2022-10-16T17:03:55.811Z,1.70
2022-10-16T17:06:26.952Z,1.20
2022-10-16T17:08:54.480Z,2.33
2022-10-16T17:11:27.914Z,2.78
2022-10-16T17:13:57.983Z,1.80
2022-10-16T17:16:33.525Z,1.58
2022-10-16T17:19:03.274Z,1.50
2022-10-16T17:21:31.728Z,1.50
2022-10-16T17:23:59.488Z,1.60
2022-10-16T17:26:27.271Z,1.60
2022-10-16T17:29:00.993Z,2.17
2022-10-16T17:31:32.350Z,1.67
2022-10-16T17:34:01.246Z,1.90
2022-10-16T17:36:30.938Z,2.00
2022-10-16T17:39:04.696Z,1.60
2022-10-16T17:41:33.373Z,1.60
2022-10-16T17:44:00.966Z,1.40
2022-10-16T17:46:29.532Z,2.22
2022-10-16T17:48:56.546Z,1.55
2022-10-16T17:51:29.491Z,1.85
2022-10-16T17:53:59.353Z,1.85
2022-10-16T17:56:27.969Z,2.03
2022-10-16T17:59:03.917Z,2.75
2022-10-16T18:01:35.718Z,2.15
2022-10-16T18:04:07.395Z,2.72
2022-10-16T18:06:35.775Z,2.60
2022-10-16T18:09:04.776Z,3.22
2022-10-16T18:11:32.217Z,3.25
2022-10-16T18:14:00.625Z,3.30
2022-10-16T18:16:30.851Z,2.90
2022-10-16T18:18:58.822Z,2.92
2022-10-16T18:21:27.817Z,2.88
2022-10-16T18:23:56.553Z,3.20
2022-10-16T18:26:24.013Z,3.67
2022-10-16T18:28:57.265Z,3.17
2022-10-16T18:31:28.487Z,3.30
2022-10-16T18:33:56.147Z,3.60
2022-10-16T18:36:30.813Z,3.20
2022-10-16T18:38:59.788Z,3.80
2022-10-16T18:41:27.783Z,3.13
2022-10-16T18:43:56.351Z,3.45
2022-10-16T18:46:26.083Z,3.22
2022-10-16T18:48:54.496Z,2.60
2022-10-16T18:51:32.314Z,3.15
2022-10-16T18:54:03.500Z,2.72
2022-10-16T18:56:32.245Z,2.88
2022-10-16T18:59:02.210Z,3.10
2022-10-16T19:01:33.577Z,2.95
2022-10-16T19:04:10.137Z,2.40
2022-10-16T19:06:42.197Z,2.55
2022-10-16T19:09:11.349Z,2.42
2022-10-16T19:11:41.574Z,2.20
2022-10-16T19:14:11.001Z,2.83
2022-10-16T19:16:38.934Z,2.83
2022-10-16T19:19:08.361Z,2.95
2022-10-16T19:21:40.094Z,2.65
2022-10-16T19:24:10.884Z,2.75
2022-10-16T19:26:41.187Z,3.22
2022-10-16T19:29:11.447Z,3.15
2022-10-16T19:31:39.166Z,2.50
2022-10-16T19:34:07.516Z,2.83
2022-10-16T19:36:38.285Z,3.47
2022-10-16T19:39:12.091Z,3.70
2022-10-16T19:41:39.439Z,3.25
2022-10-16T19:44:11.059Z,3.80
2022-10-16T19:46:39.014Z,4.93
2022-10-16T19:49:09.995Z,6.70
2022-10-16T19:51:37.319Z,7.07
2022-10-16T19:54:09.218Z,6.68
2022-10-16T19:56:37.536Z,5.93
2022-10-16T19:59:07.459Z,6.00
2022-10-16T20:01:35.478Z,5.78
2022-10-16T20:04:03.018Z,6.95
2022-10-16T20:06:30.174Z,6.32
2022-10-16T20:09:03.789Z,5.65
2022-10-16T20:11:33.875Z,6.07
2022-10-16T20:14:01.912Z,6.65
2022-10-16T20:16:30.881Z,7.07
2022-10-16T20:19:03.232Z,6.95
2022-10-16T20:21:33.742Z,7.32
2022-10-16T20:24:04.390Z,6.45
2022-10-16T20:26:31.316Z,5.80
2022-10-16T20:28:59.575Z,6.82
2022-10-16T20:31:30.035Z,6.82
2022-10-16T20:34:01.813Z,6.85
2022-10-16T20:36:30.626Z,6.90
2022-10-16T20:38:57.969Z,6.90
2022-10-16T20:41:25.022Z,6.32
2022-10-16T20:43:52.958Z,5.72
2022-10-16T20:46:26.148Z,6.60
2022-10-16T20:48:55.791Z,6.20
2022-10-16T20:51:31.183Z,6.57
2022-10-16T20:54:01.922Z,6.80
2022-10-16T20:56:31.873Z,5.90
2022-10-16T20:58:59.113Z,6.60
2022-10-16T21:01:29.241Z,6.82
2022-10-16T21:04:00.176Z,6.32
2022-10-16T21:06:27.700Z,6.28
2022-10-16T21:08:55.149Z,6.50
2022-10-16T21:11:27.361Z,6.30
2022-10-16T21:13:58.054Z,6.90
2022-10-16T21:16:26.335Z,5.90
2022-10-16T21:18:54.092Z,6.93
2022-10-16T21:21:31.417Z,6.47
2022-10-16T21:23:59.943Z,5.75
2022-10-16T21:26:28.668Z,6.00
2022-10-16T21:29:06.720Z,5.75
2022-10-16T21:31:34.852Z,6.78
2022-10-16T21:34:02.642Z,6.50
2022-10-16T21:36:33.504Z,6.50
2022-10-16T21:39:26.815Z,6.20
2022-10-16T21:41:53.776Z,6.45
2022-10-16T21:44:20.722Z,6.35
2022-10-16T21:46:50.953Z,5.57
2022-10-16T21:49:19.599Z,5.45
2022-10-16T21:51:51.144Z,5.93
2022-10-16T21:59:55.761Z,5.50
2022-10-16T22:02:22.652Z,5.00
2022-10-16T22:04:49.558Z,5.22
2022-10-16T22:07:16.446Z,5.80
2022-10-16T22:09:43.382Z,5.55
2022-10-16T22:12:10.441Z,4.72
2022-10-16T22:14:39.749Z,4.82
2022-10-16T22:17:06.646Z,4.97
2022-10-16T22:19:33.608Z,4.88
2022-10-16T22:22:01.628Z,4.72
2022-10-16T22:24:28.545Z,4.43
2022-10-16T22:26:55.699Z,5.30
2022-10-16T22:29:22.714Z,6.45
2022-10-16T22:31:53.289Z,6.30
2022-10-16T22:34:20.607Z,6.35
2022-10-16T22:36:50.175Z,5.70
2022-10-16T22:39:17.887Z,5.75
2022-10-16T22:41:44.740Z,5.20
2022-10-16T22:44:13.320Z,5.53
2022-10-16T22:46:40.602Z,4.97
2022-10-16T22:49:07.529Z,4.95
2022-10-16T22:51:34.497Z,5.10
2022-10-16T22:54:01.594Z,4.70
2022-10-16T22:56:28.543Z,5.00
2022-10-16T22:58:55.575Z,5.35
2022-10-16T23:01:31.158Z,4.50
2022-10-16T23:03:58.730Z,4.38
2022-10-16T23:06:25.724Z,4.70
2022-10-16T23:09:00.273Z,4.10
2022-10-16T23:11:29.526Z,5.43
2022-10-16T23:13:56.869Z,4.63
2022-10-16T23:16:25.173Z,5.38
2022-10-16T23:18:52.272Z,4.10
2022-10-16T23:21:23.483Z,4.80
2022-10-16T23:23:53.397Z,4.82
2022-10-16T23:26:24.803Z,4.80
2022-10-16T23:28:51.879Z,4.70
2022-10-16T23:31:19.717Z,4.28
2022-10-16T23:33:46.824Z,4.30
2022-10-16T23:36:17.511Z,3.97
2022-10-16T23:38:45.236Z,4.57
2022-10-16T23:41:13.687Z,4.57
2022-10-16T23:43:40.809Z,4.38
2022-10-16T23:46:10.558Z,4.28
2022-10-16T23:48:38.584Z,3.58
2022-10-16T23:51:09.510Z,3.50
2022-10-16T23:53:36.765Z,3.58
2022-10-16T23:56:03.993Z,5.38
2022-10-16T23:58:31.001Z,3.38
